Aérodrome :
LOGIN :

S'inscrire | Disclaimer

   EN    FR    IT 

 










Légende :    VFR   VFR Marginal   IFR   IFR Intensif   IFR Très Intensif
Visi : 
Plafond : 
>= 8 km
>= 3000ft
5 à 8 km
1000 à 3000 ft
1500m à 5 km
500 à 1000 ft
800 à 1500m
200 à 500 ft
< 800m
< 200 ft
Symboles :   Orages  Brouillard  Fortes neiges  Fortes précipitations  Vent > 20 kt
SIGMETs :   Divers  Orages  Givrage  Turbulence  Onde Orograph.  Cendres Volcan.







- Altitude de l'aérodrome : 100 ft


EBDT - Schaffen

DERNIER METAR :
  • 270755Z 14003KT 9999 SCT140 BKN210 12/05 Q1013 BLU BLU

METARs EXPIRÉS :
  • 270725Z 15004KT 9999 SCT140 BKN210 10/04 Q1013 BLU BLU
  • 270655Z 15004KT 9999 SCT140 BKN210 08/04 Q1013 BLU BLU
  • 270625Z 16003KT 9999 SCT160 BKN210 07/04 Q1013 BLU BLU
  • 270555Z 17004KT 9999 SCT160 BKN170 06/03 Q1014 BLU BLU
  • 270525Z 16003KT 9999 FEW050 BKN170 05/02 Q1014 BLU BLU

TAF TAF EBDT
Valide du 27 à 07h jusqu'au 27 à 16h UTC


270541Z 2707/2716 17005KT 9999 FEW025 BKN100
BECMG 2712/2714 SCT050
Pas de NOTAMs connus pour ce terrain.



MET'MAP, la Météo Aéronautique d'un coup d'oeil ! - Copyright ORBIFLY Décembre 2007 - Disclaimer

ORBIFLY MET'MAP TEAM :

Programmation & Développement : Alexandra Zaïnal
Conception & Développement : Baudouin d'Aumeries
Co-Programmation & Développement : Marc-Olivier Méhu
Soutien technique & logistique : Manuel Goepfert

Contact : metmap@orbifly.com




SOURCES & CREDITS :

   NOAA